Brownsville, TX (78520)

9:13 PM CDT on September 25, 2016 (GMT -0500)
West Brownsville | | Change Station

Elev 35 ft 25.92 °N, 97.52 °W | Updated 6 minutes ago

Clear
Clear
84.0 °F
Feels Like 93 °F
N
1.0
Wind Variable Wind from SE
Gusts 10.0 mph

Today
High -- | Low -- °F
--% Chance of Precip.
Yesterday
High -- | Low -- °F
Precip. -- in
Pressure 29.88 in
Visibility 10.0 miles
Clouds Clear
Heat Index 93 °F
Dew Point 77 °F
Humidity 78%
Rainfall 0.00 in
Snow Depth Not available.
7:20 AM 7:22 PM
Waning Crescent, 23% visible
METAR KBRO 260153Z 14007KT 10SM CLR 28/24 A2988 RMK AO2 SLP116 T02830244
Pressure 29.88 in
Visibility 10.0 miles
Clouds Clear
Heat Index 93 °F
Dew Point 77 °F
Humidity 78%
Rainfall 0.00 in
Snow Depth Not available.
7:20 AM 7:22 PM
Waning Crescent, 23% visible
METAR KBRO 260153Z 14007KT 10SM CLR 28/24 A2988 RMK AO2 SLP116 T02830244

10-Day Weather Forecast

Almanac

Astronomy

Sep. 25, 2016 Rise Set
Actual Time
Civil Twilight
Nautical Twilight
Astronomical Twilight
Moon
Length of Visible Light
Length of Day
Tomorrow will be .
, % of the Moon is Illuminated

Today's Extremes

State Highs State Lows

Community

WunderPhotos

Upload Photos

1,941,811 photos uploaded!

WunderBlog® & News

Nearby

Air Quality

  Air Quality AQ Index Pollutant
Not available.

Snow Depth

Station Depth Elevation

Earthquake Activity

City Distance Mag. Time & Date
Minimum magnitude displayed is 2.5.

Coastal Water Temperatures

Place Temperature

Stations

Nearby Weather Stations

Station Location Temp. Windchill Dew Point Humidity Wind Precip. Elev Updated Type
                   

Watches & Warnings

There are currently no watches in effect.